Maersk Bulan — 9V7693 — position and weather

sailwx.info

Track history (hours):
 
Tides and Currents Weather Stations Pressure Air Temp Water Temp Dewpoint Dewpoint Depression Visibility Wind Speed Wind Dir Waves Ship Positions

Maersk Bulan

Last reported at 2014-Aug-28 18:26 UTC. Time now 2014-Sep-30 20:04 UTC.
Position N 34°03' W 014°01'.
Warning: this ship's position is 33 days out of date.

Length 223 m; draft 10.3 m.

Type: Ship (hazmat cat A). MMSI: 563455000.

Date/timePositionNaut miles runAvg speedWind from/ knotsBaromVisibWave heightAir tempDewpointWater temp
2014-Aug-28 18:26N 34°03' W 014°01'2211.8
2014-Aug-28 16:32N 34°09' W 013°35'1311.9
2014-Aug-28 15:25N 34°13' W 013°20'1012.1
2014-Aug-28 14:33N 34°16' W 013°08'1212.3
2014-Aug-28 13:33N 34°20' W 012°54'13412.0
2014-Aug-28 02:24N 34°59' W 010°17'1211.9
2014-Aug-28 01:24N 35°02' W 010°04'4012.2
2014-Aug-27 22:08N 35°13' W 009°17'2012.5
2014-Aug-27 20:33N 35°19' W 008°54'1212.4
2014-Aug-27 19:33N 35°23' W 008°39'1212.3
2014-Aug-27 18:33N 35°26' W 008°25'1211.9
2014-Aug-27 17:33N 35°30' W 008°11'1211.8
2014-Aug-27 16:33N 35°33' W 007°57'1411.7
2014-Aug-27 15:21N 35°38' W 007°41'10911.0
2014-Aug-27 05:26N 35°60' W 005°29'9 1.9
2014-Aug-27 00:30N 36°08' W 005°26'0 0.0
2014-Aug-26 20:27N 36°08' W 005°26'0 0.0
2014-Aug-26 19:30N 36°08' W 005°26'0 0.0
2014-Aug-26 18:33N 36°08' W 005°26'0 0.0
2014-Aug-26 16:33N 36°08' W 005°26'169 5.0
2014-Aug-25 06:33N 36°28' W 001°58'7111.9
2014-Aug-25 00:33N 36°40' W 000°30'11711.4
2014-Aug-24 14:18N 36°58' E 001°54'6811.6
2014-Aug-24 08:26N 37°09' E 003°19'33611.6
2014-Aug-23 03:21N 37°38' E 010°20'911.2
2014-Aug-23 02:33N 37°36' E 010°31'1311.4
2014-Aug-23 01:25N 37°33' E 010°47'1011.4
2014-Aug-23 00:32N 37°31' E 010°59'1311.8
2014-Aug-22 23:28N 37°27' E 011°14'1112.1
2014-Aug-22 22:32N 37°20' E 011°26'3611.6
2014-Aug-22 19:27N 37°01' E 012°04'1011.4
2014-Aug-22 18:34N 36°58' E 012°16'11511.5
2014-Aug-22 08:33N 36°26' E 014°34'1211.5
2014-Aug-22 07:33N 36°23' E 014°48'1111.2
2014-Aug-22 06:33N 36°20' E 015°01'2611.7
2014-Aug-22 04:21N 36°20' E 015°33'36211.2
2014-Aug-20 20:10N 36°25' E 023°02'1110.5
2014-Aug-20 19:07N 36°25' E 023°16'712.0
2014-Aug-20 18:32N 36°31' E 023°21'1111.4
2014-Aug-20 17:33N 36°41' E 023°27'1411.4
2014-Aug-20 16:20N 36°52' E 023°37'1011.3
2014-Aug-20 15:25N 37°00' E 023°46'1012.1
2014-Aug-20 14:33N 37°08' E 023°55'1312.4
2014-Aug-20 13:33N 37°17' E 024°06'2412.2
2014-Aug-20 11:33N 37°35' E 024°26'1312.6
2014-Aug-20 10:33N 37°46' E 024°33'2912.3
2014-Aug-20 08:14N 38°10' E 024°53'1313.9
2014-Aug-20 07:17N 38°20' E 025°04'911.7
2014-Aug-20 06:31N 38°27' E 025°11'1411.8
2014-Aug-20 05:21N 38°37' E 025°23'911.4
2014-Aug-20 04:33N 38°43' E 025°32'71 2.2
2014-Aug-18 20:06N 39°52' E 025°52'  
Track history (hours):
 
Tides and Currents Weather Stations Pressure Air Temp Water Temp Dewpoint Dewpoint Depression Visibility Wind Speed Wind Dir Waves Ship Positions

Maersk Bulan

Last reported at 2014-Aug-28 18:26 UTC. Time now 2014-Sep-30 20:04 UTC.
Position N 34°03' W 014°01'.
Warning: this ship's position is 33 days out of date.

Length 223 m; draft 10.3 m.

Type: Ship (hazmat cat A). MMSI: 563455000.

Date/timePositionNaut miles runAvg speedWind from/ knotsBaromVisibWave heightAir tempDewpointWater temp
2014-Aug-28 18:26N 34°03' W 014°01'2211.8
2014-Aug-28 16:32N 34°09' W 013°35'1311.9
2014-Aug-28 15:25N 34°13' W 013°20'1012.1
2014-Aug-28 14:33N 34°16' W 013°08'1212.3
2014-Aug-28 13:33N 34°20' W 012°54'13412.0
2014-Aug-28 02:24N 34°59' W 010°17'1211.9
2014-Aug-28 01:24N 35°02' W 010°04'4012.2
2014-Aug-27 22:08N 35°13' W 009°17'2012.5
2014-Aug-27 20:33N 35°19' W 008°54'1212.4
2014-Aug-27 19:33N 35°23' W 008°39'1212.3
2014-Aug-27 18:33N 35°26' W 008°25'1211.9
2014-Aug-27 17:33N 35°30' W 008°11'1211.8
2014-Aug-27 16:33N 35°33' W 007°57'1411.7
2014-Aug-27 15:21N 35°38' W 007°41'10911.0
2014-Aug-27 05:26N 35°60' W 005°29'9 1.9
2014-Aug-27 00:30N 36°08' W 005°26'0 0.0
2014-Aug-26 20:27N 36°08' W 005°26'0 0.0
2014-Aug-26 19:30N 36°08' W 005°26'0 0.0
2014-Aug-26 18:33N 36°08' W 005°26'0 0.0
2014-Aug-26 16:33N 36°08' W 005°26'169 5.0
2014-Aug-25 06:33N 36°28' W 001°58'7111.9
2014-Aug-25 00:33N 36°40' W 000°30'11711.4
2014-Aug-24 14:18N 36°58' E 001°54'6811.6
2014-Aug-24 08:26N 37°09' E 003°19'33611.6
2014-Aug-23 03:21N 37°38' E 010°20'911.2
2014-Aug-23 02:33N 37°36' E 010°31'1311.4
2014-Aug-23 01:25N 37°33' E 010°47'1011.4
2014-Aug-23 00:32N 37°31' E 010°59'1311.8
2014-Aug-22 23:28N 37°27' E 011°14'1112.1
2014-Aug-22 22:32N 37°20' E 011°26'3611.6
2014-Aug-22 19:27N 37°01' E 012°04'1011.4
2014-Aug-22 18:34N 36°58' E 012°16'11511.5
2014-Aug-22 08:33N 36°26' E 014°34'1211.5
2014-Aug-22 07:33N 36°23' E 014°48'1111.2
2014-Aug-22 06:33N 36°20' E 015°01'2611.7
2014-Aug-22 04:21N 36°20' E 015°33'36211.2
2014-Aug-20 20:10N 36°25' E 023°02'1110.5
2014-Aug-20 19:07N 36°25' E 023°16'712.0
2014-Aug-20 18:32N 36°31' E 023°21'1111.4
2014-Aug-20 17:33N 36°41' E 023°27'1411.4
2014-Aug-20 16:20N 36°52' E 023°37'1011.3
2014-Aug-20 15:25N 37°00' E 023°46'1012.1
2014-Aug-20 14:33N 37°08' E 023°55'1312.4
2014-Aug-20 13:33N 37°17' E 024°06'2412.2
2014-Aug-20 11:33N 37°35' E 024°26'1312.6
2014-Aug-20 10:33N 37°46' E 024°33'2912.3
2014-Aug-20 08:14N 38°10' E 024°53'1313.9
2014-Aug-20 07:17N 38°20' E 025°04'911.7
2014-Aug-20 06:31N 38°27' E 025°11'1411.8
2014-Aug-20 05:21N 38°37' E 025°23'911.4
2014-Aug-20 04:33N 38°43' E 025°32'71 2.2
2014-Aug-18 20:06N 39°52' E 025°52'  

Dump ship's entire track history